sensor_id;sensor_type;location;lat;lon;timestamp;temperature;humidity
43679;DHT22;29279;50.858;4.392;2022-12-18T00:00:30;0.50;99.90
43679;DHT22;29279;50.858;4.392;2022-12-18T00:02:56;0.40;99.90
43679;DHT22;29279;50.858;4.392;2022-12-18T00:05:21;0.30;99.90
43679;DHT22;29279;50.858;4.392;2022-12-18T00:07:47;0.30;99.90
43679;DHT22;29279;50.858;4.392;2022-12-18T00:10:13;0.30;99.90
43679;DHT22;29279;50.858;4.392;2022-12-18T00:12:38;0.30;99.90
43679;DHT22;29279;50.858;4.392;2022-12-18T00:15:04;0.20;99.90
43679;DHT22;29279;50.858;4.392;2022-12-18T00:17:30;0.20;99.90
43679;DHT22;29279;50.858;4.392;2022-12-18T00:19:55;0.20;99.90
43679;DHT22;29279;50.858;4.392;2022-12-18T00:22:21;0.20;99.90
43679;DHT22;29279;50.858;4.392;2022-12-18T00:24:47;0.20;99.90
43679;DHT22;29279;50.858;4.392;2022-12-18T00:27:13;0.20;99.90
43679;DHT22;29279;50.858;4.392;2022-12-18T00:29:38;0.00;99.90
43679;DHT22;29279;50.858;4.392;2022-12-18T00:32:04;-0.20;99.90
43679;DHT22;29279;50.858;4.392;2022-12-18T00:34:29;-0.20;99.90
43679;DHT22;29279;50.858;4.392;2022-12-18T00:36:55;-0.20;99.90
43679;DHT22;29279;50.858;4.392;2022-12-18T00:39:21;-0.30;99.90
43679;DHT22;29279;50.858;4.392;2022-12-18T00:41:46;-0.50;99.90
43679;DHT22;29279;50.858;4.392;2022-12-18T00:44:30;-0.70;99.90
43679;DHT22;29279;50.858;4.392;2022-12-18T00:46:56;-0.80;99.90
43679;DHT22;29279;50.858;4.392;2022-12-18T00:49:22;-0.90;99.90
43679;DHT22;29279;50.858;4.392;2022-12-18T00:51:48;-0.90;99.90
43679;DHT22;29279;50.858;4.392;2022-12-18T00:54:14;-0.90;99.90
43679;DHT22;29279;50.858;4.392;2022-12-18T00:56:40;-0.80;99.90
43679;DHT22;29279;50.858;4.392;2022-12-18T00:59:06;-0.70;99.90
43679;DHT22;29279;50.858;4.392;2022-12-18T01:01:32;-0.70;99.90
43679;DHT22;29279;50.858;4.392;2022-12-18T01:03:59;-0.50;99.90
43679;DHT22;29279;50.858;4.392;2022-12-18T01:06:24;-0.50;99.90
43679;DHT22;29279;50.858;4.392;2022-12-18T01:08:50;-0.40;99.90
43679;DHT22;29279;50.858;4.392;2022-12-18T01:11:18;-0.40;99.90
43679;DHT22;29279;50.858;4.392;2022-12-18T01:13:45;-0.10;99.90
43679;DHT22;29279;50.858;4.392;2022-12-18T01:16:16;-0.20;99.90
43679;DHT22;29279;50.858;4.392;2022-12-18T01:18:42;-0.30;99.90
43679;DHT22;29279;50.858;4.392;2022-12-18T01:21:09;-0.40;99.90
43679;DHT22;29279;50.858;4.392;2022-12-18T01:23:35;-0.60;99.90
43679;DHT22;29279;50.858;4.392;2022-12-18T01:26:11;-0.70;99.90
43679;DHT22;29279;50.858;4.392;2022-12-18T01:28:39;-0.70;99.90
43679;DHT22;29279;50.858;4.392;2022-12-18T01:33:40;-0.70;99.90
43679;DHT22;29279;50.858;4.392;2022-12-18T01:36:06;-0.80;99.90
43679;DHT22;29279;50.858;4.392;2022-12-18T01:38:32;-0.80;99.90
43679;DHT22;29279;50.858;4.392;2022-12-18T01:40:59;-0.50;99.90
43679;DHT22;29279;50.858;4.392;2022-12-18T01:43:49;-0.60;99.90
43679;DHT22;29279;50.858;4.392;2022-12-18T01:46:17;-0.40;99.90
43679;DHT22;29279;50.858;4.392;2022-12-18T01:48:44;-0.40;99.90
43679;DHT22;29279;50.858;4.392;2022-12-18T01:51:12;-0.40;99.90
43679;DHT22;29279;50.858;4.392;2022-12-18T01:53:40;-0.60;99.90
43679;DHT22;29279;50.858;4.392;2022-12-18T01:56:07;-0.60;99.90
43679;DHT22;29279;50.858;4.392;2022-12-18T01:59:01;-0.60;99.90
43679;DHT22;29279;50.858;4.392;2022-12-18T02:01:29;-0.70;99.90
43679;DHT22;29279;50.858;4.392;2022-12-18T02:03:55;-0.80;99.90
43679;DHT22;29279;50.858;4.392;2022-12-18T02:06:34;-0.80;99.90
43679;DHT22;29279;50.858;4.392;2022-12-18T02:09:13;-0.80;99.90
43679;DHT22;29279;50.858;4.392;2022-12-18T02:11:53;-0.70;99.90
43679;DHT22;29279;50.858;4.392;2022-12-18T02:15:02;-0.60;99.90
43679;DHT22;29279;50.858;4.392;2022-12-18T02:17:46;-0.50;99.90
43679;DHT22;29279;50.858;4.392;2022-12-18T02:20:17;-0.40;99.90
43679;DHT22;29279;50.858;4.392;2022-12-18T02:26:08;-0.20;99.90
43679;DHT22;29279;50.858;4.392;2022-12-18T02:31:27;-0.10;99.90
43679;DHT22;29279;50.858;4.392;2022-12-18T02:33:55;0.00;99.90
43679;DHT22;29279;50.858;4.392;2022-12-18T02:36:23;-0.10;99.90
43679;DHT22;29279;50.858;4.392;2022-12-18T02:38:50;0.00;99.90
43679;DHT22;29279;50.858;4.392;2022-12-18T02:41:18;-0.20;99.90
43679;DHT22;29279;50.858;4.392;2022-12-18T02:43:58;-0.30;99.90
43679;DHT22;29279;50.858;4.392;2022-12-18T02:46:31;-0.20;99.90
43679;DHT22;29279;50.858;4.392;2022-12-18T03:02:38;-0.50;99.90
43679;DHT22;29279;50.858;4.392;2022-12-18T03:05:14;-0.80;99.90
43679;DHT22;29279;50.858;4.392;2022-12-18T03:07:53;-0.90;99.90
43679;DHT22;29279;50.858;4.392;2022-12-18T03:10:26;-0.80;99.90
43679;DHT22;29279;50.858;4.392;2022-12-18T03:13:06;-0.80;99.90
43679;DHT22;29279;50.858;4.392;2022-12-18T03:15:46;-0.70;99.90
43679;DHT22;29279;50.858;4.392;2022-12-18T03:18:23;-0.70;99.90
43679;DHT22;29279;50.858;4.392;2022-12-18T03:20:52;-0.70;99.90
43679;DHT22;29279;50.858;4.392;2022-12-18T03:23:22;-0.70;99.90
43679;DHT22;29279;50.858;4.392;2022-12-18T03:25:53;-0.80;99.90
43679;DHT22;29279;50.858;4.392;2022-12-18T03:28:22;-0.70;99.90
43679;DHT22;29279;50.858;4.392;2022-12-18T03:30:55;-0.90;99.90
43679;DHT22;29279;50.858;4.392;2022-12-18T03:33:29;-0.80;99.90
43679;DHT22;29279;50.858;4.392;2022-12-18T03:35:57;-0.90;99.90
43679;DHT22;29279;50.858;4.392;2022-12-18T03:38:22;-1.20;99.90
43679;DHT22;29279;50.858;4.392;2022-12-18T03:43:38;-1.40;99.90
43679;DHT22;29279;50.858;4.392;2022-12-18T03:46:24;-1.40;99.90
43679;DHT22;29279;50.858;4.392;2022-12-18T03:49:25;-1.40;99.90
43679;DHT22;29279;50.858;4.392;2022-12-18T03:52:04;-1.30;99.90
43679;DHT22;29279;50.858;4.392;2022-12-18T03:54:33;-1.10;99.90
43679;DHT22;29279;50.858;4.392;2022-12-18T03:57:09;-1.00;99.90
43679;DHT22;29279;50.858;4.392;2022-12-18T03:59:37;-0.90;99.90
43679;DHT22;29279;50.858;4.392;2022-12-18T04:02:06;-0.90;99.90
43679;DHT22;29279;50.858;4.392;2022-12-18T04:04:34;-0.80;99.90
43679;DHT22;29279;50.858;4.392;2022-12-18T04:07:00;-0.80;99.90
43679;DHT22;29279;50.858;4.392;2022-12-18T04:09:27;-0.90;99.90
43679;DHT22;29279;50.858;4.392;2022-12-18T04:11:53;-0.90;99.90
43679;DHT22;29279;50.858;4.392;2022-12-18T04:14:20;-0.80;99.90
43679;DHT22;29279;50.858;4.392;2022-12-18T04:16:45;-0.90;99.90
43679;DHT22;29279;50.858;4.392;2022-12-18T04:19:11;-0.90;99.90
43679;DHT22;29279;50.858;4.392;2022-12-18T04:21:37;-0.90;99.90
43679;DHT22;29279;50.858;4.392;2022-12-18T04:24:03;-0.90;99.90
43679;DHT22;29279;50.858;4.392;2022-12-18T04:26:28;-0.90;99.90
43679;DHT22;29279;50.858;4.392;2022-12-18T04:28:54;-1.00;99.90
43679;DHT22;29279;50.858;4.392;2022-12-18T04:31:19;-0.80;99.90
43679;DHT22;29279;50.858;4.392;2022-12-18T04:33:45;-0.80;99.90
43679;DHT22;29279;50.858;4.392;2022-12-18T04:36:11;-0.70;99.90
43679;DHT22;29279;50.858;4.392;2022-12-18T04:38:37;-0.70;99.90
43679;DHT22;29279;50.858;4.392;2022-12-18T04:41:03;-0.60;99.90
43679;DHT22;29279;50.858;4.392;2022-12-18T04:43:29;-0.60;99.90
43679;DHT22;29279;50.858;4.392;2022-12-18T04:46:02;-0.60;99.90
43679;DHT22;29279;50.858;4.392;2022-12-18T04:48:27;-0.60;99.90
43679;DHT22;29279;50.858;4.392;2022-12-18T04:50:53;-0.60;99.90
43679;DHT22;29279;50.858;4.392;2022-12-18T04:53:19;-0.60;99.90
43679;DHT22;29279;50.858;4.392;2022-12-18T04:55:44;-0.50;99.90
43679;DHT22;29279;50.858;4.392;2022-12-18T04:58:10;-0.50;99.90
43679;DHT22;29279;50.858;4.392;2022-12-18T05:00:36;-0.60;99.90
43679;DHT22;29279;50.858;4.392;2022-12-18T05:03:02;-0.70;99.90
43679;DHT22;29279;50.858;4.392;2022-12-18T05:05:27;-0.60;99.90
43679;DHT22;29279;50.858;4.392;2022-12-18T05:07:54;-0.70;99.90
43679;DHT22;29279;50.858;4.392;2022-12-18T05:10:20;-0.70;99.90
43679;DHT22;29279;50.858;4.392;2022-12-18T05:12:45;-0.70;99.90
43679;DHT22;29279;50.858;4.392;2022-12-18T05:15:30;-0.80;99.90
43679;DHT22;29279;50.858;4.392;2022-12-18T05:17:56;-0.80;99.90
43679;DHT22;29279;50.858;4.392;2022-12-18T05:20:23;-0.60;99.90
43679;DHT22;29279;50.858;4.392;2022-12-18T05:22:49;-0.70;99.90
43679;DHT22;29279;50.858;4.392;2022-12-18T05:25:15;-1.10;99.90
43679;DHT22;29279;50.858;4.392;2022-12-18T05:27:41;-1.30;99.90
43679;DHT22;29279;50.858;4.392;2022-12-18T05:30:08;-1.30;99.90
43679;DHT22;29279;50.858;4.392;2022-12-18T05:32:34;-1.30;99.90
43679;DHT22;29279;50.858;4.392;2022-12-18T05:35:00;-1.20;99.90
43679;DHT22;29279;50.858;4.392;2022-12-18T05:37:25;-1.10;99.90
43679;DHT22;29279;50.858;4.392;2022-12-18T05:39:51;-1.00;99.90
43679;DHT22;29279;50.858;4.392;2022-12-18T05:42:17;-1.10;99.90
43679;DHT22;29279;50.858;4.392;2022-12-18T05:44:43;-1.20;99.90
43679;DHT22;29279;50.858;4.392;2022-12-18T05:47:09;-1.10;99.90
43679;DHT22;29279;50.858;4.392;2022-12-18T05:49:34;-1.10;99.90
43679;DHT22;29279;50.858;4.392;2022-12-18T05:52:00;-1.20;99.90
43679;DHT22;29279;50.858;4.392;2022-12-18T05:54:29;-1.20;99.90
43679;DHT22;29279;50.858;4.392;2022-12-18T05:56:55;-1.20;99.90
43679;DHT22;29279;50.858;4.392;2022-12-18T05:59:20;-1.10;99.90
43679;DHT22;29279;50.858;4.392;2022-12-18T06:01:46;-1.00;99.90
43679;DHT22;29279;50.858;4.392;2022-12-18T06:04:12;-1.00;99.90
43679;DHT22;29279;50.858;4.392;2022-12-18T06:06:38;-1.00;99.90
43679;DHT22;29279;50.858;4.392;2022-12-18T06:09:03;-0.90;99.90
43679;DHT22;29279;50.858;4.392;2022-12-18T06:11:36;-0.80;99.90
43679;DHT22;29279;50.858;4.392;2022-12-18T06:14:03;-1.10;99.90
43679;DHT22;29279;50.858;4.392;2022-12-18T06:16:30;-1.10;99.90
43679;DHT22;29279;50.858;4.392;2022-12-18T06:19:00;-1.20;99.90
43679;DHT22;29279;50.858;4.392;2022-12-18T06:21:26;-1.30;99.90
43679;DHT22;29279;50.858;4.392;2022-12-18T06:23:52;-1.20;99.90
43679;DHT22;29279;50.858;4.392;2022-12-18T06:26:18;-1.00;99.90
43679;DHT22;29279;50.858;4.392;2022-12-18T06:28:44;-0.90;99.90
43679;DHT22;29279;50.858;4.392;2022-12-18T06:31:09;-0.90;99.90
43679;DHT22;29279;50.858;4.392;2022-12-18T06:33:36;-0.90;99.90
43679;DHT22;29279;50.858;4.392;2022-12-18T06:36:12;-0.90;99.90
43679;DHT22;29279;50.858;4.392;2022-12-18T06:38:40;-1.00;99.90
43679;DHT22;29279;50.858;4.392;2022-12-18T06:41:11;-1.20;99.90
43679;DHT22;29279;50.858;4.392;2022-12-18T06:43:37;-1.30;99.90
43679;DHT22;29279;50.858;4.392;2022-12-18T06:46:04;-1.30;99.90
43679;DHT22;29279;50.858;4.392;2022-12-18T06:48:30;-1.20;99.90
43679;DHT22;29279;50.858;4.392;2022-12-18T06:50:56;-1.00;99.90
43679;DHT22;29279;50.858;4.392;2022-12-18T06:53:22;-1.00;99.90
43679;DHT22;29279;50.858;4.392;2022-12-18T06:55:49;-1.00;99.90
43679;DHT22;29279;50.858;4.392;2022-12-18T06:58:15;-1.00;99.90
43679;DHT22;29279;50.858;4.392;2022-12-18T07:00:41;-1.00;99.90
43679;DHT22;29279;50.858;4.392;2022-12-18T07:03:07;-1.20;99.90
43679;DHT22;29279;50.858;4.392;2022-12-18T07:05:33;-1.30;99.90
43679;DHT22;29279;50.858;4.392;2022-12-18T07:07:59;-1.60;99.90
43679;DHT22;29279;50.858;4.392;2022-12-18T07:10:25;-1.60;99.90
43679;DHT22;29279;50.858;4.392;2022-12-18T07:12:51;-1.50;99.90
43679;DHT22;29279;50.858;4.392;2022-12-18T07:15:17;-1.60;99.90
43679;DHT22;29279;50.858;4.392;2022-12-18T07:17:42;-1.70;99.90
43679;DHT22;29279;50.858;4.392;2022-12-18T07:20:09;-1.70;99.90
43679;DHT22;29279;50.858;4.392;2022-12-18T07:22:35;-1.60;99.90
43679;DHT22;29279;50.858;4.392;2022-12-18T07:25:04;-1.70;99.90
43679;DHT22;29279;50.858;4.392;2022-12-18T07:27:29;-1.70;99.90
43679;DHT22;29279;50.858;4.392;2022-12-18T07:29:55;-1.80;99.90
43679;DHT22;29279;50.858;4.392;2022-12-18T07:32:21;-1.80;99.90
43679;DHT22;29279;50.858;4.392;2022-12-18T07:34:46;-1.60;99.90
43679;DHT22;29279;50.858;4.392;2022-12-18T07:37:12;-1.70;99.90
43679;DHT22;29279;50.858;4.392;2022-12-18T07:39:38;-1.50;99.90
43679;DHT22;29279;50.858;4.392;2022-12-18T07:42:03;-1.40;99.90
43679;DHT22;29279;50.858;4.392;2022-12-18T07:44:48;-1.40;99.90
43679;DHT22;29279;50.858;4.392;2022-12-18T07:47:14;-1.40;99.90
43679;DHT22;29279;50.858;4.392;2022-12-18T07:49:39;-1.50;99.90
43679;DHT22;29279;50.858;4.392;2022-12-18T07:52:05;-1.50;99.90
43679;DHT22;29279;50.858;4.392;2022-12-18T07:54:31;-1.50;99.90
43679;DHT22;29279;50.858;4.392;2022-12-18T07:56:56;-1.50;99.90
43679;DHT22;29279;50.858;4.392;2022-12-18T07:59:22;-1.40;99.90
43679;DHT22;29279;50.858;4.392;2022-12-18T08:01:47;-1.40;99.90
43679;DHT22;29279;50.858;4.392;2022-12-18T08:04:13;-1.40;99.90
43679;DHT22;29279;50.858;4.392;2022-12-18T08:06:39;-1.30;99.90
43679;DHT22;29279;50.858;4.392;2022-12-18T08:09:04;-1.20;99.90
43679;DHT22;29279;50.858;4.392;2022-12-18T08:11:30;-1.00;99.90
43679;DHT22;29279;50.858;4.392;2022-12-18T08:13:57;-0.70;99.90
43679;DHT22;29279;50.858;4.392;2022-12-18T08:16:23;-0.50;99.90
43679;DHT22;29279;50.858;4.392;2022-12-18T08:18:49;-0.20;99.90
43679;DHT22;29279;50.858;4.392;2022-12-18T08:21:18;0.20;99.90
43679;DHT22;29279;50.858;4.392;2022-12-18T08:23:46;0.30;99.90
43679;DHT22;29279;50.858;4.392;2022-12-18T08:26:12;0.40;99.90
43679;DHT22;29279;50.858;4.392;2022-12-18T08:28:38;0.30;99.90
43679;DHT22;29279;50.858;4.392;2022-12-18T08:31:05;0.40;99.90
43679;DHT22;29279;50.858;4.392;2022-12-18T08:33:31;0.30;99.90
43679;DHT22;29279;50.858;4.392;2022-12-18T08:35:58;0.60;99.90
43679;DHT22;29279;50.858;4.392;2022-12-18T08:38:24;0.60;99.90
43679;DHT22;29279;50.858;4.392;2022-12-18T08:41:04;0.40;99.90
43679;DHT22;29279;50.858;4.392;2022-12-18T08:43:30;0.00;99.90
43679;DHT22;29279;50.858;4.392;2022-12-18T08:46:14;-0.20;99.90
43679;DHT22;29279;50.858;4.392;2022-12-18T08:48:40;-0.10;99.90
43679;DHT22;29279;50.858;4.392;2022-12-18T08:51:06;-0.10;99.90
43679;DHT22;29279;50.858;4.392;2022-12-18T08:53:32;0.00;99.90
43679;DHT22;29279;50.858;4.392;2022-12-18T08:55:57;0.00;99.90
43679;DHT22;29279;50.858;4.392;2022-12-18T08:58:23;0.10;99.90
43679;DHT22;29279;50.858;4.392;2022-12-18T09:00:49;0.20;99.90
43679;DHT22;29279;50.858;4.392;2022-12-18T09:03:16;0.10;99.90
43679;DHT22;29279;50.858;4.392;2022-12-18T09:05:42;0.20;99.90
43679;DHT22;29279;50.858;4.392;2022-12-18T09:08:08;0.20;99.90
43679;DHT22;29279;50.858;4.392;2022-12-18T09:10:41;0.30;99.90
43679;DHT22;29279;50.858;4.392;2022-12-18T09:13:07;0.40;99.90
43679;DHT22;29279;50.858;4.392;2022-12-18T09:15:33;0.50;99.90
43679;DHT22;29279;50.858;4.392;2022-12-18T09:17:58;0.70;99.90
43679;DHT22;29279;50.858;4.392;2022-12-18T09:20:24;0.80;99.90
43679;DHT22;29279;50.858;4.392;2022-12-18T09:22:50;0.80;99.90
43679;DHT22;29279;50.858;4.392;2022-12-18T09:25:15;0.70;99.90
43679;DHT22;29279;50.858;4.392;2022-12-18T09:27:41;0.60;99.90
43679;DHT22;29279;50.858;4.392;2022-12-18T09:30:07;0.40;99.90
43679;DHT22;29279;50.858;4.392;2022-12-18T09:32:33;0.40;99.90
43679;DHT22;29279;50.858;4.392;2022-12-18T09:34:59;0.30;99.90
43679;DHT22;29279;50.858;4.392;2022-12-18T09:37:25;0.30;99.90
43679;DHT22;29279;50.858;4.392;2022-12-18T09:39:50;0.30;99.90
43679;DHT22;29279;50.858;4.392;2022-12-18T09:42:21;0.30;99.90
43679;DHT22;29279;50.858;4.392;2022-12-18T09:44:54;0.40;99.90
43679;DHT22;29279;50.858;4.392;2022-12-18T09:47:21;0.30;99.90
43679;DHT22;29279;50.858;4.392;2022-12-18T09:49:52;0.50;99.90
43679;DHT22;29279;50.858;4.392;2022-12-18T09:52:35;0.50;99.90
43679;DHT22;29279;50.858;4.392;2022-12-18T10:00:42;0.70;99.90
43679;DHT22;29279;50.858;4.392;2022-12-18T10:03:13;0.70;99.90
43679;DHT22;29279;50.858;4.392;2022-12-18T10:06:06;0.60;99.90
43679;DHT22;29279;50.858;4.392;2022-12-18T10:20:18;0.50;99.90
43679;DHT22;29279;50.858;4.392;2022-12-18T10:26:05;0.80;99.90
43679;DHT22;29279;50.858;4.392;2022-12-18T10:28:33;0.80;99.90
43679;DHT22;29279;50.858;4.392;2022-12-18T10:31:00;0.80;99.90
43679;DHT22;29279;50.858;4.392;2022-12-18T10:33:29;1.00;99.90
43679;DHT22;29279;50.858;4.392;2022-12-18T10:35:55;1.00;99.90
43679;DHT22;29279;50.858;4.392;2022-12-18T10:38:27;1.10;99.90
43679;DHT22;29279;50.858;4.392;2022-12-18T10:40:57;1.00;99.90
43679;DHT22;29279;50.858;4.392;2022-12-18T10:46:19;1.20;99.90
43679;DHT22;29279;50.858;4.392;2022-12-18T10:51:28;1.40;99.90
43679;DHT22;29279;50.858;4.392;2022-12-18T10:54:16;1.40;99.90
43679;DHT22;29279;50.858;4.392;2022-12-18T10:56:43;1.50;99.90
43679;DHT22;29279;50.858;4.392;2022-12-18T10:59:11;1.50;99.90
43679;DHT22;29279;50.858;4.392;2022-12-18T11:04:19;1.60;99.90
43679;DHT22;29279;50.858;4.392;2022-12-18T11:07:06;1.70;99.90
43679;DHT22;29279;50.858;4.392;2022-12-18T11:09:40;1.80;99.90
43679;DHT22;29279;50.858;4.392;2022-12-18T11:12:17;1.90;99.80
43679;DHT22;29279;50.858;4.392;2022-12-18T11:17:20;1.90;99.30
43679;DHT22;29279;50.858;4.392;2022-12-18T11:19:54;1.80;99.50
43679;DHT22;29279;50.858;4.392;2022-12-18T11:22:30;1.80;99.90
43679;DHT22;29279;50.858;4.392;2022-12-18T11:25:21;1.90;99.60
43679;DHT22;29279;50.858;4.392;2022-12-18T11:27:55;2.00;99.80
43679;DHT22;29279;50.858;4.392;2022-12-18T11:30:47;1.90;99.70
43679;DHT22;29279;50.858;4.392;2022-12-18T11:33:19;2.00;99.90
43679;DHT22;29279;50.858;4.392;2022-12-18T11:40:43;2.20;99.50
43679;DHT22;29279;50.858;4.392;2022-12-18T11:43:16;2.20;99.30
43679;DHT22;29279;50.858;4.392;2022-12-18T11:45:55;2.20;99.30
43679;DHT22;29279;50.858;4.392;2022-12-18T11:48:27;2.20;99.40
43679;DHT22;29279;50.858;4.392;2022-12-18T11:50:57;2.30;99.30
43679;DHT22;29279;50.858;4.392;2022-12-18T11:53:25;2.30;99.20
43679;DHT22;29279;50.858;4.392;2022-12-18T12:04:08;2.60;98.20
43679;DHT22;29279;50.858;4.392;2022-12-18T12:20:03;2.40;98.70
43679;DHT22;29279;50.858;4.392;2022-12-18T12:22:43;2.60;98.50
43679;DHT22;29279;50.858;4.392;2022-12-18T12:30:39;2.70;98.60
43679;DHT22;29279;50.858;4.392;2022-12-18T12:38:37;2.90;98.20
43679;DHT22;29279;50.858;4.392;2022-12-18T12:41:09;2.90;98.20
43679;DHT22;29279;50.858;4.392;2022-12-18T12:44:00;2.90;98.20
43679;DHT22;29279;50.858;4.392;2022-12-18T12:46:27;3.00;98.50
43679;DHT22;29279;50.858;4.392;2022-12-18T12:49:03;3.10;98.10
43679;DHT22;29279;50.858;4.392;2022-12-18T12:51:36;3.10;98.00
43679;DHT22;29279;50.858;4.392;2022-12-18T12:54:14;3.20;97.80
43679;DHT22;29279;50.858;4.392;2022-12-18T12:57:02;3.10;98.00
43679;DHT22;29279;50.858;4.392;2022-12-18T13:08:04;2.90;98.30
43679;DHT22;29279;50.858;4.392;2022-12-18T13:10:52;2.90;98.30
43679;DHT22;29279;50.858;4.392;2022-12-18T13:13:54;2.80;98.40
43679;DHT22;29279;50.858;4.392;2022-12-18T13:16:21;2.70;98.70
43679;DHT22;29279;50.858;4.392;2022-12-18T13:18:55;2.90;98.50
43679;DHT22;29279;50.858;4.392;2022-12-18T13:21:27;2.90;98.60
43679;DHT22;29279;50.858;4.392;2022-12-18T13:23:54;3.00;98.60
43679;DHT22;29279;50.858;4.392;2022-12-18T13:28:53;3.00;98.40
43679;DHT22;29279;50.858;4.392;2022-12-18T13:34:27;2.80;98.80
43679;DHT22;29279;50.858;4.392;2022-12-18T13:36:56;2.90;98.50
43679;DHT22;29279;50.858;4.392;2022-12-18T13:39:26;2.80;98.60
43679;DHT22;29279;50.858;4.392;2022-12-18T13:47:01;2.70;99.10
43679;DHT22;29279;50.858;4.392;2022-12-18T13:49:38;2.70;98.80
43679;DHT22;29279;50.858;4.392;2022-12-18T13:52:25;2.60;99.00
43679;DHT22;29279;50.858;4.392;2022-12-18T13:54:55;2.60;99.70
43679;DHT22;29279;50.858;4.392;2022-12-18T13:57:36;2.50;99.90
43679;DHT22;29279;50.858;4.392;2022-12-18T14:02:50;2.90;99.90
43679;DHT22;29279;50.858;4.392;2022-12-18T14:05:30;2.80;99.90
43679;DHT22;29279;50.858;4.392;2022-12-18T14:08:03;2.60;99.90
43679;DHT22;29279;50.858;4.392;2022-12-18T14:10:30;2.60;99.90
43679;DHT22;29279;50.858;4.392;2022-12-18T14:12:56;2.60;99.90
43679;DHT22;29279;50.858;4.392;2022-12-18T14:15:25;2.50;99.90
43679;DHT22;29279;50.858;4.392;2022-12-18T14:18:02;2.50;99.90
43679;DHT22;29279;50.858;4.392;2022-12-18T14:20:31;2.60;99.90
43679;DHT22;29279;50.858;4.392;2022-12-18T14:22:58;2.50;99.90
43679;DHT22;29279;50.858;4.392;2022-12-18T14:25:27;2.60;99.90
43679;DHT22;29279;50.858;4.392;2022-12-18T14:28:12;2.70;99.90
43679;DHT22;29279;50.858;4.392;2022-12-18T14:30:41;2.80;99.90
43679;DHT22;29279;50.858;4.392;2022-12-18T14:33:12;2.90;99.90
43679;DHT22;29279;50.858;4.392;2022-12-18T14:35:42;2.90;99.90
43679;DHT22;29279;50.858;4.392;2022-12-18T14:40:46;2.80;99.70
43679;DHT22;29279;50.858;4.392;2022-12-18T14:43:12;2.70;99.80
43679;DHT22;29279;50.858;4.392;2022-12-18T14:45:40;2.90;99.60
43679;DHT22;29279;50.858;4.392;2022-12-18T14:48:12;3.00;99.40
43679;DHT22;29279;50.858;4.392;2022-12-18T14:50:39;2.80;99.30
43679;DHT22;29279;50.858;4.392;2022-12-18T14:53:05;2.80;99.40
43679;DHT22;29279;50.858;4.392;2022-12-18T14:55:31;2.40;99.90
43679;DHT22;29279;50.858;4.392;2022-12-18T14:57:57;2.50;99.90
43679;DHT22;29279;50.858;4.392;2022-12-18T15:00:24;2.60;99.80
43679;DHT22;29279;50.858;4.392;2022-12-18T15:02:54;2.60;99.80
43679;DHT22;29279;50.858;4.392;2022-12-18T15:05:26;2.60;99.90
43679;DHT22;29279;50.858;4.392;2022-12-18T15:07:53;2.50;99.90
43679;DHT22;29279;50.858;4.392;2022-12-18T15:10:20;2.50;99.90
43679;DHT22;29279;50.858;4.392;2022-12-18T15:20:47;2.50;99.90
43679;DHT22;29279;50.858;4.392;2022-12-18T15:25:45;2.50;99.80
43679;DHT22;29279;50.858;4.392;2022-12-18T15:28:25;2.40;99.90
43679;DHT22;29279;50.858;4.392;2022-12-18T15:33:42;2.70;99.90
43679;DHT22;29279;50.858;4.392;2022-12-18T15:36:14;2.60;99.90
43679;DHT22;29279;50.858;4.392;2022-12-18T15:38:40;2.50;99.90
43679;DHT22;29279;50.858;4.392;2022-12-18T15:41:10;2.50;99.90
43679;DHT22;29279;50.858;4.392;2022-12-18T15:43:37;2.60;99.70
43679;DHT22;29279;50.858;4.392;2022-12-18T15:46:15;2.50;99.80
43679;DHT22;29279;50.858;4.392;2022-12-18T15:53:46;2.80;99.90
43679;DHT22;29279;50.858;4.392;2022-12-18T15:56:14;2.70;99.60
43679;DHT22;29279;50.858;4.392;2022-12-18T15:59:00;2.70;99.50
43679;DHT22;29279;50.858;4.392;2022-12-18T16:01:28;2.70;99.90
43679;DHT22;29279;50.858;4.392;2022-12-18T16:03:54;2.60;99.90
43679;DHT22;29279;50.858;4.392;2022-12-18T16:06:21;2.70;99.90
43679;DHT22;29279;50.858;4.392;2022-12-18T16:08:46;2.80;99.10
43679;DHT22;29279;50.858;4.392;2022-12-18T16:11:22;2.60;99.40
43679;DHT22;29279;50.858;4.392;2022-12-18T16:16:33;2.80;98.80
43679;DHT22;29279;50.858;4.392;2022-12-18T16:18:59;2.80;98.80
43679;DHT22;29279;50.858;4.392;2022-12-18T16:21:24;2.90;99.10
43679;DHT22;29279;50.858;4.392;2022-12-18T16:23:50;2.80;98.80
43679;DHT22;29279;50.858;4.392;2022-12-18T16:26:16;2.70;98.80
43679;DHT22;29279;50.858;4.392;2022-12-18T16:28:41;2.60;98.90
43679;DHT22;29279;50.858;4.392;2022-12-18T16:31:08;2.70;98.60
43679;DHT22;29279;50.858;4.392;2022-12-18T16:33:33;2.70;98.40
43679;DHT22;29279;50.858;4.392;2022-12-18T16:35:59;2.70;98.30
43679;DHT22;29279;50.858;4.392;2022-12-18T16:38:25;2.70;99.90
43679;DHT22;29279;50.858;4.392;2022-12-18T16:40:50;2.80;98.30
43679;DHT22;29279;50.858;4.392;2022-12-18T16:43:34;2.70;98.30
43679;DHT22;29279;50.858;4.392;2022-12-18T16:46:00;2.60;98.40
43679;DHT22;29279;50.858;4.392;2022-12-18T16:48:26;2.70;98.40
43679;DHT22;29279;50.858;4.392;2022-12-18T16:51:03;2.70;98.50
43679;DHT22;29279;50.858;4.392;2022-12-18T16:53:29;2.80;98.10
43679;DHT22;29279;50.858;4.392;2022-12-18T16:55:55;2.70;98.20
43679;DHT22;29279;50.858;4.392;2022-12-18T16:58:22;2.80;98.30
43679;DHT22;29279;50.858;4.392;2022-12-18T17:00:48;2.90;98.00
43679;DHT22;29279;50.858;4.392;2022-12-18T17:03:13;2.80;98.10
43679;DHT22;29279;50.858;4.392;2022-12-18T17:05:39;2.80;98.20
43679;DHT22;29279;50.858;4.392;2022-12-18T17:08:05;2.80;98.10
43679;DHT22;29279;50.858;4.392;2022-12-18T17:10:33;2.90;98.00
43679;DHT22;29279;50.858;4.392;2022-12-18T17:12:59;3.10;97.70
43679;DHT22;29279;50.858;4.392;2022-12-18T17:15:25;3.00;97.90
43679;DHT22;29279;50.858;4.392;2022-12-18T17:17:51;3.00;98.00
43679;DHT22;29279;50.858;4.392;2022-12-18T17:20:16;2.90;98.10
43679;DHT22;29279;50.858;4.392;2022-12-18T17:22:42;3.00;98.10
43679;DHT22;29279;50.858;4.392;2022-12-18T17:25:08;3.10;98.50
43679;DHT22;29279;50.858;4.392;2022-12-18T17:27:34;3.10;98.80
43679;DHT22;29279;50.858;4.392;2022-12-18T17:29:59;3.10;99.00
43679;DHT22;29279;50.858;4.392;2022-12-18T17:32:25;3.00;99.90
43679;DHT22;29279;50.858;4.392;2022-12-18T17:34:51;3.10;99.20
43679;DHT22;29279;50.858;4.392;2022-12-18T17:37:16;3.10;98.80
43679;DHT22;29279;50.858;4.392;2022-12-18T17:39:42;3.00;99.60
43679;DHT22;29279;50.858;4.392;2022-12-18T17:42:08;3.20;99.40
43679;DHT22;29279;50.858;4.392;2022-12-18T17:44:37;3.10;99.80
43679;DHT22;29279;50.858;4.392;2022-12-18T17:47:02;3.00;99.90
43679;DHT22;29279;50.858;4.392;2022-12-18T17:49:30;2.80;99.90
43679;DHT22;29279;50.858;4.392;2022-12-18T17:51:56;2.90;99.90
43679;DHT22;29279;50.858;4.392;2022-12-18T17:54:21;2.90;99.90
43679;DHT22;29279;50.858;4.392;2022-12-18T17:56:47;2.70;99.90
43679;DHT22;29279;50.858;4.392;2022-12-18T17:59:13;2.60;99.90
43679;DHT22;29279;50.858;4.392;2022-12-18T18:01:39;2.60;99.90
43679;DHT22;29279;50.858;4.392;2022-12-18T18:04:05;2.50;99.90
43679;DHT22;29279;50.858;4.392;2022-12-18T18:06:31;2.30;99.90
43679;DHT22;29279;50.858;4.392;2022-12-18T18:08:57;2.20;99.90
43679;DHT22;29279;50.858;4.392;2022-12-18T18:11:23;2.20;99.90